Terminal Aerodrome Forecast
Issued by NWS

Home | Current Version | Previous Version | Graphics & Text | Print | Product List | Glossary On
Versions: 1 2 3 4 5 6 7 8 9 10 11 12 13 14 15 16 17 18 19 20 21 22 23 24 25 26 27 28
000
FTUS43 KTOP 190500
TAFFOE
TAF
KFOE 190520Z 1906/2006 13005KT 5SM BR SCT020
     FM190800 14005KT 4SM BR SCT007 BKN015
      TEMPO 1910/1913 2SM BR BKN007
     FM191500 17010KT P6SM SCT020
     FM191900 18011KT P6SM FEW025=

USA.gov is the U.S. government's official web portal to all federal, state and local government web resources and services.